Fairville, Pennsylvania
Current Conditions -  °F | °C
As of 9:53 AM on Wednesday 26 Nov 2014 (Local Time) from KSEG Reporting Station
Moderate Snow Moderate Snow  
Wind Chill: 29°   Ceiling: 500
Heat Index: 33°   Visibility: 0.5mi
Dew Point: 31°   Wind: 5mph
Humidity: 92%   Direction: 330°NNW
Pressure: 30.11"   Gusts: NA
Location:  40.9885°N, 76.9787°W
Report Text: KSEG 261453Z AUTO 33004KT 1/2SM SN FG OVC005 01/M01 A3011 RMK AO2 SLP200 P0009 60019 T00061006 58008
Loading
Personal Weather Stations






























Interactive Weather Map New forecast layout! Learn more

10-Day Weather Forecast

Advertisements
Track Severe Weather on mobile